createdAt,value
2018-02-07T00:02:10.971Z,44.50
2018-02-07T00:04:38.557Z,34.50
2018-02-07T00:07:06.214Z,46.45
2018-02-07T00:09:33.802Z,39.53
2018-02-07T00:12:01.387Z,45.47
2018-02-07T00:14:29.218Z,34.80
2018-02-07T00:16:56.838Z,39.75
2018-02-07T00:19:24.494Z,34.75
2018-02-07T00:21:52.079Z,46.83
2018-02-07T00:24:19.658Z,39.58
2018-02-07T00:26:47.243Z,37.28
2018-02-07T00:29:14.824Z,48.00
2018-02-07T00:31:42.503Z,49.50
2018-02-07T00:34:10.168Z,41.05
2018-02-07T00:36:38.595Z,39.80
2018-02-07T00:39:07.198Z,44.20
2018-02-07T00:41:34.868Z,44.33
2018-02-07T00:44:02.438Z,35.15
2018-02-07T00:46:30.027Z,43.97
2018-02-07T00:48:57.675Z,44.90
2018-02-07T00:51:25.314Z,51.08
2018-02-07T00:53:52.950Z,46.10
2018-02-07T00:56:20.534Z,41.45
2018-02-07T00:58:48.118Z,45.83
2018-02-07T01:01:15.786Z,44.58
2018-02-07T01:03:43.485Z,44.97
2018-02-07T01:06:11.148Z,53.65
2018-02-07T01:08:38.746Z,43.15
2018-02-07T01:11:06.444Z,49.58
2018-02-07T01:13:34.069Z,51.90
2018-02-07T01:16:01.792Z,43.78
2018-02-07T01:18:29.379Z,45.83
2018-02-07T01:20:56.999Z,44.50
2018-02-07T01:23:24.584Z,52.62
2018-02-07T01:25:52.214Z,44.50
2018-02-07T01:28:19.806Z,50.10
2018-02-07T01:30:47.400Z,41.35
2018-02-07T01:33:14.987Z,48.72
2018-02-07T01:35:42.579Z,53.78
2018-02-07T01:38:10.164Z,46.72
2018-02-07T01:40:37.776Z,43.05
2018-02-07T01:43:05.475Z,46.65
2018-02-07T01:45:33.103Z,41.90
2018-02-07T01:48:00.768Z,57.85
2018-02-07T01:50:28.394Z,48.05
2018-02-07T01:52:56.016Z,58.60
2018-02-07T01:55:23.807Z,50.17
2018-02-07T01:57:51.531Z,54.83
2018-02-07T02:00:19.204Z,53.97
2018-02-07T02:02:46.951Z,67.68
2018-02-07T02:05:14.567Z,52.67
2018-02-07T02:07:42.271Z,63.13
2018-02-07T02:10:09.979Z,64.37
2018-02-07T02:12:37.567Z,46.35
2018-02-07T02:15:05.164Z,46.80
2018-02-07T02:17:32.794Z,47.42
2018-02-07T02:20:00.382Z,54.97
2018-02-07T02:22:28.010Z,57.15
2018-02-07T02:24:55.663Z,56.65
2018-02-07T02:27:23.242Z,44.40
2018-02-07T02:29:50.864Z,66.05
2018-02-07T02:32:18.446Z,64.10
2018-02-07T02:34:46.063Z,43.55
2018-02-07T02:37:14.554Z,59.03
2018-02-07T02:39:42.175Z,64.28
2018-02-07T02:42:09.758Z,56.08
2018-02-07T02:44:37.347Z,51.92
2018-02-07T02:47:04.937Z,59.60
2018-02-07T02:49:32.551Z,58.63
2018-02-07T02:52:00.132Z,56.63
2018-02-07T02:54:27.766Z,59.70
2018-02-07T02:56:55.382Z,51.17
2018-02-07T02:59:22.966Z,63.92
2018-02-07T03:01:51.504Z,61.22
2018-02-07T03:04:19.143Z,58.80
2018-02-07T03:06:46.806Z,67.93
2018-02-07T03:09:14.390Z,52.35
2018-02-07T03:11:42.023Z,61.13
2018-02-07T03:14:10.582Z,54.55
2018-02-07T03:16:38.323Z,56.37
2018-02-07T03:19:05.946Z,59.75
2018-02-07T03:21:34.393Z,56.20
2018-02-07T03:24:02.924Z,64.30
2018-02-07T03:26:30.510Z,62.72
2018-02-07T03:28:58.135Z,54.95
2018-02-07T03:31:25.719Z,61.42
2018-02-07T03:33:53.302Z,72.47
2018-02-07T03:36:20.941Z,56.20
2018-02-07T03:38:49.531Z,63.75
2018-02-07T03:41:17.214Z,43.60
2018-02-07T03:43:44.810Z,48.03
2018-02-07T03:46:12.436Z,56.37
2018-02-07T03:48:40.975Z,52.90
2018-02-07T03:51:09.443Z,60.78
2018-02-07T03:53:37.934Z,60.53
2018-02-07T03:56:06.308Z,57.88
2018-02-07T03:58:33.933Z,60.92
2018-02-07T04:01:01.566Z,52.50
2018-02-07T04:03:29.190Z,62.08
2018-02-07T04:05:57.815Z,62.47
2018-02-07T04:08:25.410Z,63.35
2018-02-07T04:10:52.989Z,62.97
2018-02-07T04:13:21.457Z,59.13
2018-02-07T04:15:49.063Z,56.45
2018-02-07T04:18:16.641Z,66.60
2018-02-07T04:20:44.229Z,65.30
2018-02-07T04:23:11.880Z,57.53
2018-02-07T04:25:39.491Z,65.25
2018-02-07T04:28:07.078Z,64.50
2018-02-07T04:30:35.585Z,61.92
2018-02-07T04:33:03.946Z,59.10
2018-02-07T04:35:32.329Z,64.97
2018-02-07T04:38:00.885Z,73.22
2018-02-07T04:40:29.353Z,63.92
2018-02-07T04:42:56.946Z,74.70
2018-02-07T04:45:24.583Z,67.25
2018-02-07T04:47:52.165Z,62.95
2018-02-07T04:50:20.007Z,72.90
2018-02-07T04:52:48.391Z,74.80
2018-02-07T04:55:16.974Z,52.17
2018-02-07T04:57:44.641Z,59.17
2018-02-07T05:00:13.119Z,60.12
2018-02-07T05:02:40.704Z,63.25
2018-02-07T05:05:09.216Z,64.30
2018-02-07T05:07:37.627Z,60.60
2018-02-07T05:10:06.230Z,65.32
2018-02-07T05:12:34.302Z,58.60
2018-02-07T05:15:01.897Z,69.37
2018-02-07T05:17:29.526Z,62.95
2018-02-07T05:19:57.161Z,73.12
2018-02-07T05:22:25.566Z,57.75
2018-02-07T05:24:54.059Z,52.47
2018-02-07T05:27:22.439Z,70.43
2018-02-07T05:29:50.065Z,70.60
2018-02-07T05:32:18.562Z,64.78
2018-02-07T05:34:46.935Z,63.45
2018-02-07T05:37:15.362Z,64.07
2018-02-07T05:39:43.715Z,63.13
2018-02-07T05:42:12.065Z,79.45
2018-02-07T05:44:40.466Z,68.07
2018-02-07T05:47:08.962Z,62.92
2018-02-07T05:49:37.283Z,69.60
2018-02-07T05:52:05.822Z,62.05
2018-02-07T05:54:34.726Z,68.32
2018-02-07T05:57:03.059Z,66.68
2018-02-07T05:59:31.502Z,73.65
2018-02-07T06:01:59.990Z,58.55
2018-02-07T06:04:27.627Z,68.60
2018-02-07T06:06:55.231Z,60.70
2018-02-07T06:09:22.846Z,66.18
2018-02-07T06:11:50.462Z,69.65
2018-02-07T06:14:18.058Z,59.70
2018-02-07T06:16:45.683Z,64.15
2018-02-07T06:19:13.318Z,61.95
2018-02-07T06:21:40.938Z,68.47
2018-02-07T06:24:08.534Z,69.62
2018-02-07T06:26:37.063Z,54.60
2018-02-07T06:29:05.418Z,74.87
2018-02-07T06:31:33.050Z,71.00
2018-02-07T06:34:01.635Z,60.53
2018-02-07T06:36:30.007Z,63.45
2018-02-07T06:38:58.484Z,63.90
2018-02-07T06:41:26.070Z,63.42
2018-02-07T06:43:53.660Z,67.32
2018-02-07T06:46:21.382Z,75.43
2018-02-07T06:48:48.966Z,58.05
2018-02-07T06:51:17.270Z,78.90
2018-02-07T06:53:45.060Z,74.25
2018-02-07T06:56:12.655Z,69.95
2018-02-07T06:58:40.282Z,76.50
2018-02-07T07:01:08.699Z,67.30
2018-02-07T07:03:36.753Z,69.60
2018-02-07T07:06:04.490Z,70.05
2018-02-07T07:08:32.111Z,83.47
2018-02-07T07:11:00.205Z,78.43
2018-02-07T07:13:27.812Z,71.97
2018-02-07T07:15:56.035Z,90.65
2018-02-07T07:18:23.677Z,80.28
2018-02-07T07:20:51.262Z,76.55
2018-02-07T07:23:18.925Z,68.47
2018-02-07T07:25:46.515Z,82.30
2018-02-07T07:28:14.114Z,69.57
2018-02-07T07:30:41.704Z,77.82
2018-02-07T07:33:10.189Z,74.60
2018-02-07T07:35:37.907Z,69.78
2018-02-07T07:38:05.495Z,82.25
2018-02-07T07:40:33.168Z,80.25
2018-02-07T07:43:00.753Z,79.65
2018-02-07T07:45:29.067Z,80.93
2018-02-07T07:47:56.646Z,88.90
2018-02-07T07:50:25.246Z,76.45
2018-02-07T07:52:53.694Z,83.32
2018-02-07T07:55:21.358Z,77.37
2018-02-07T07:57:48.947Z,87.30
2018-02-07T08:00:16.587Z,87.25
2018-02-07T08:02:44.162Z,69.07
2018-02-07T08:05:11.786Z,76.20
2018-02-07T08:07:39.402Z,77.82
2018-02-07T08:10:07.951Z,86.75
2018-02-07T08:12:36.234Z,83.65
2018-02-07T08:15:03.820Z,76.07
2018-02-07T08:17:31.403Z,78.95
2018-02-07T08:19:59.687Z,97.90
2018-02-07T08:22:28.014Z,90.55
2018-02-07T08:24:56.475Z,79.20
2018-02-07T08:27:24.107Z,85.45
2018-02-07T08:29:51.747Z,91.90
2018-02-07T08:32:20.299Z,89.82
2018-02-07T08:34:48.703Z,104.95
2018-02-07T08:37:17.151Z,105.57
2018-02-07T08:39:45.559Z,88.90
2018-02-07T08:42:14.019Z,101.57
2018-02-07T08:44:42.575Z,84.05
2018-02-07T08:47:10.935Z,105.43
2018-02-07T08:49:40.546Z,104.07
2018-02-07T08:52:09.107Z,107.37
2018-02-07T08:54:36.758Z,86.03
2018-02-07T08:57:05.477Z,97.30
2018-02-07T08:59:33.062Z,95.75
2018-02-07T09:02:00.752Z,102.32
2018-02-07T09:04:28.411Z,90.00
2018-02-07T09:06:56.075Z,96.15
2018-02-07T09:09:23.783Z,79.35
2018-02-07T09:11:51.403Z,87.25
2018-02-07T09:14:19.036Z,92.90
2018-02-07T09:16:46.610Z,99.13
2018-02-07T09:19:15.102Z,88.72
2018-02-07T09:21:43.472Z,94.65
2018-02-07T09:24:11.835Z,88.75
2018-02-07T09:26:40.130Z,107.55
2018-02-07T09:29:07.714Z,101.93
2018-02-07T09:31:35.380Z,108.27
2018-02-07T09:34:03.019Z,103.07
2018-02-07T09:36:31.615Z,93.10
2018-02-07T09:38:59.270Z,91.43
2018-02-07T09:41:27.627Z,89.10
2018-02-07T09:43:55.248Z,99.93
2018-02-07T09:46:22.825Z,90.43
2018-02-07T09:48:50.415Z,84.50
2018-02-07T09:51:18.099Z,87.30
2018-02-07T09:53:45.707Z,106.00
2018-02-07T09:56:14.183Z,98.25
2018-02-07T09:58:41.808Z,101.78
2018-02-07T10:01:09.391Z,89.47
2018-02-07T10:03:37.067Z,82.62
2018-02-07T10:06:05.856Z,92.97
2018-02-07T10:08:33.453Z,103.38
2018-02-07T10:11:01.155Z,88.80
2018-02-07T10:13:28.747Z,105.95
2018-02-07T10:15:56.362Z,98.17
2018-02-07T10:18:24.863Z,100.80
2018-02-07T10:20:52.452Z,94.22
2018-02-07T10:23:20.039Z,98.50
2018-02-07T10:25:47.627Z,92.50
2018-02-07T10:28:15.207Z,87.00
2018-02-07T10:30:43.719Z,89.50
2018-02-07T10:33:12.071Z,98.77
2018-02-07T10:35:40.538Z,105.27
2018-02-07T10:38:09.028Z,101.70
2018-02-07T10:40:36.611Z,104.80
2018-02-07T10:43:04.227Z,98.40
2018-02-07T10:45:31.846Z,95.30
2018-02-07T10:47:59.462Z,84.90
2018-02-07T10:50:27.045Z,93.75
2018-02-07T10:52:55.430Z,93.90
2018-02-07T10:55:23.739Z,93.20
2018-02-07T10:57:51.307Z,96.47
2018-02-07T11:00:19.705Z,104.00
2018-02-07T11:02:47.277Z,93.53
2018-02-07T11:05:15.855Z,86.10
2018-02-07T11:07:43.523Z,97.47
2018-02-07T11:10:11.820Z,95.67
2018-02-07T11:12:39.398Z,112.30
2018-02-07T11:15:06.980Z,93.50
2018-02-07T11:17:34.558Z,91.43
2018-02-07T11:20:02.160Z,102.10
2018-02-07T11:22:30.635Z,99.63
2018-02-07T11:24:58.211Z,91.70
2018-02-07T11:27:25.785Z,92.77
2018-02-07T11:29:53.363Z,93.87
2018-02-07T11:32:20.942Z,89.80
2018-02-07T11:34:48.562Z,93.87
2018-02-07T11:37:16.967Z,93.93
2018-02-07T11:39:44.581Z,80.40
2018-02-07T11:42:12.154Z,101.50
2018-02-07T11:44:39.734Z,84.83
2018-02-07T11:47:07.306Z,69.57
2018-02-07T11:49:34.886Z,79.37
2018-02-07T11:52:03.370Z,79.87
2018-02-07T11:54:31.645Z,74.17
2018-02-07T11:56:59.223Z,72.10
2018-02-07T11:59:27.697Z,70.27
2018-02-07T12:01:56.010Z,66.17
2018-02-07T12:04:23.590Z,63.73
2018-02-07T12:06:51.204Z,61.10
2018-02-07T12:09:18.778Z,53.27
2018-02-07T12:11:47.295Z,60.90
2018-02-07T12:14:14.867Z,69.87
2018-02-07T12:16:43.343Z,67.57
2018-02-07T12:19:10.990Z,54.40
2018-02-07T12:21:38.579Z,70.07
2018-02-07T12:24:06.158Z,54.77
2018-02-07T12:26:34.511Z,60.23
2018-02-07T12:29:02.118Z,54.73
2018-02-07T12:31:29.714Z,48.63
2018-02-07T12:33:58.149Z,51.37
2018-02-07T12:36:25.725Z,48.70
2018-02-07T12:38:53.303Z,56.30
2018-02-07T12:41:20.954Z,58.20
2018-02-07T12:43:48.532Z,58.30
2018-02-07T12:46:17.038Z,52.57
2018-02-07T12:48:45.470Z,54.37
2018-02-07T12:51:13.878Z,47.83
2018-02-07T12:53:42.258Z,54.97
2018-02-07T12:56:09.874Z,41.13
2018-02-07T12:58:38.405Z,52.40
2018-02-07T13:01:05.985Z,45.63
2018-02-07T13:03:33.566Z,41.07
2018-02-07T13:06:01.156Z,48.13
2018-02-07T13:08:28.870Z,46.40
2018-02-07T13:10:57.351Z,48.77
2018-02-07T13:13:24.959Z,43.07
2018-02-07T13:15:52.530Z,49.90
2018-02-07T13:18:20.146Z,52.10
2018-02-07T13:20:47.726Z,55.03
2018-02-07T13:23:15.330Z,46.83
2018-02-07T13:25:43.799Z,47.90
2018-02-07T13:28:11.375Z,47.93
2018-02-07T13:30:39.047Z,58.83
2018-02-07T13:33:07.551Z,53.23
2018-02-07T13:35:35.857Z,43.27
2018-02-07T13:38:03.439Z,47.63
2018-02-07T13:40:31.015Z,46.67
2018-02-07T13:42:58.594Z,53.53
2018-02-07T13:45:27.068Z,60.03
2018-02-07T13:47:54.648Z,58.20
2018-02-07T13:50:22.255Z,53.23
2018-02-07T13:52:49.833Z,69.50
2018-02-07T13:55:17.415Z,70.77
2018-02-07T13:57:44.995Z,58.43
2018-02-07T14:00:12.572Z,67.33
2018-02-07T14:02:40.150Z,64.70
2018-02-07T14:05:07.722Z,64.77
2018-02-07T14:07:35.295Z,52.83
2018-02-07T14:10:02.927Z,51.08
2018-02-07T14:12:30.532Z,52.37
2018-02-07T14:14:58.109Z,67.40
2018-02-07T14:17:25.762Z,49.37
2018-02-07T14:19:54.115Z,48.43
2018-02-07T14:22:21.686Z,42.43
2018-02-07T14:24:49.263Z,62.00
2018-02-07T14:27:16.930Z,51.03
2018-02-07T14:29:44.511Z,54.50
2018-02-07T14:32:12.086Z,56.60
2018-02-07T14:34:39.671Z,54.47
2018-02-07T14:37:07.257Z,58.60
2018-02-07T14:39:34.889Z,56.37
2018-02-07T14:42:02.466Z,54.30
2018-02-07T14:44:30.862Z,52.83
2018-02-07T14:46:58.442Z,50.20
2018-02-07T14:49:26.027Z,53.93
2018-02-07T14:51:54.380Z,53.43
2018-02-07T14:54:21.959Z,52.30
2018-02-07T14:56:49.534Z,47.37
2018-02-07T14:59:17.147Z,46.20
2018-02-07T15:01:45.622Z,48.87
2018-02-07T15:04:13.198Z,46.77
2018-02-07T15:06:41.093Z,46.40
2018-02-07T15:09:08.734Z,49.90
2018-02-07T15:11:37.259Z,47.80
2018-02-07T15:14:04.842Z,48.10
2018-02-07T15:16:32.420Z,42.00
2018-02-07T15:19:00.106Z,42.13
2018-02-07T15:21:28.596Z,40.67
2018-02-07T15:23:56.750Z,46.97
2018-02-07T15:26:24.422Z,44.83
2018-02-07T15:28:52.002Z,46.33
2018-02-07T15:31:19.583Z,43.83
2018-02-07T15:33:47.160Z,44.30
2018-02-07T15:36:14.766Z,48.90
2018-02-07T15:38:42.339Z,45.90
2018-02-07T15:41:09.928Z,43.30
2018-02-07T15:43:37.726Z,39.63
2018-02-07T15:46:05.301Z,50.90
2018-02-07T15:48:32.875Z,47.50
2018-02-07T15:51:01.370Z,60.33
2018-02-07T15:53:28.954Z,45.73
2018-02-07T15:55:56.547Z,52.67
2018-02-07T15:58:24.138Z,45.35
2018-02-07T16:00:51.730Z,45.65
2018-02-07T16:03:20.213Z,50.10
2018-02-07T16:05:47.859Z,54.25
2018-02-07T16:08:15.518Z,44.33
2018-02-07T16:10:43.715Z,43.60
2018-02-07T16:13:11.306Z,62.75
2018-02-07T16:15:38.914Z,53.80
2018-02-07T16:18:06.499Z,67.63
2018-02-07T16:20:34.137Z,59.17
2018-02-07T16:23:01.799Z,69.10
2018-02-07T16:25:29.399Z,80.30
2018-02-07T16:27:56.994Z,60.72
2018-02-07T16:30:24.590Z,53.00
2018-02-07T16:32:52.177Z,54.13
2018-02-07T16:35:19.771Z,60.47
2018-02-07T16:37:47.362Z,53.70
2018-02-07T16:40:15.275Z,57.47
2018-02-07T16:42:42.866Z,56.80
2018-02-07T16:45:10.914Z,55.93
2018-02-07T16:47:38.545Z,57.20
2018-02-07T16:50:06.130Z,57.33
2018-02-07T16:52:33.860Z,64.12
2018-02-07T16:55:02.226Z,55.35
2018-02-07T16:57:29.818Z,65.62
2018-02-07T16:59:57.444Z,61.50
2018-02-07T17:02:25.054Z,63.00
2018-02-07T17:04:52.644Z,63.75
2018-02-07T17:07:20.245Z,60.58
2018-02-07T17:09:47.914Z,64.47
2018-02-07T17:12:15.588Z,68.10
2018-02-07T17:14:43.229Z,67.07
2018-02-07T17:17:10.819Z,67.12
2018-02-07T17:19:38.454Z,64.37
2018-02-07T17:22:06.797Z,72.93
2018-02-07T17:24:34.386Z,79.90
2018-02-07T17:27:02.755Z,79.62
2018-02-07T17:29:31.250Z,75.57
2018-02-07T17:31:58.953Z,79.20
2018-02-07T17:34:26.542Z,78.07
2018-02-07T17:36:54.858Z,82.85
2018-02-07T17:39:22.446Z,80.70
2018-02-07T17:41:50.034Z,90.93
2018-02-07T17:44:17.739Z,85.90
2018-02-07T17:46:45.335Z,95.93
2018-02-07T17:49:12.972Z,87.00
2018-02-07T17:51:40.666Z,95.12
2018-02-07T17:54:08.295Z,88.97
2018-02-07T17:56:36.790Z,85.62
2018-02-07T17:59:04.391Z,95.50
2018-02-07T18:01:32.003Z,95.18
2018-02-07T18:03:59.594Z,84.40
2018-02-07T18:06:27.218Z,84.97
2018-02-07T18:08:54.923Z,84.57
2018-02-07T18:11:22.586Z,99.60
2018-02-07T18:13:50.174Z,103.18
2018-02-07T18:16:17.810Z,101.12
2018-02-07T18:18:45.470Z,108.22
2018-02-07T18:21:13.765Z,99.07
2018-02-07T18:23:42.131Z,115.50
2018-02-07T18:26:10.098Z,99.37
2018-02-07T18:28:37.699Z,101.87
2018-02-07T18:31:05.339Z,93.18
2018-02-07T18:33:32.939Z,102.20
2018-02-07T18:36:00.580Z,96.12
2018-02-07T18:38:28.191Z,109.07
2018-02-07T18:40:55.807Z,107.87
2018-02-07T18:43:23.398Z,108.40
2018-02-07T18:45:51.099Z,103.03
2018-02-07T18:48:19.183Z,100.12
2018-02-07T18:50:46.797Z,107.22
2018-02-07T18:53:15.030Z,102.40
2018-02-07T18:55:42.643Z,112.88
2018-02-07T18:58:11.151Z,93.97
2018-02-07T19:00:39.039Z,100.75
2018-02-07T19:03:06.643Z,103.60
2018-02-07T19:05:34.314Z,101.72
2018-02-07T19:08:01.955Z,104.82
2018-02-07T19:10:29.587Z,88.37
2018-02-07T19:12:57.236Z,109.10
2018-02-07T19:15:24.830Z,94.97
2018-02-07T19:17:52.561Z,109.25
2018-02-07T19:20:20.196Z,113.25
2018-02-07T19:22:48.010Z,107.20
2018-02-07T19:25:15.622Z,127.10
2018-02-07T19:27:43.230Z,102.97
2018-02-07T19:30:10.869Z,95.20
2018-02-07T19:32:39.314Z,105.82
2018-02-07T19:35:07.633Z,106.50
2018-02-07T19:37:35.224Z,105.82
2018-02-07T19:40:02.810Z,115.80
2018-02-07T19:42:30.487Z,108.40
2018-02-07T19:44:59.394Z,110.37
2018-02-07T19:47:26.986Z,113.62
2018-02-07T19:49:54.571Z,97.55
2018-02-07T19:52:22.162Z,103.70
2018-02-07T19:54:49.826Z,106.70
2018-02-07T19:57:17.483Z,103.93
2018-02-07T19:59:45.127Z,112.78
2018-02-07T20:02:12.743Z,114.47
2018-02-07T20:04:40.374Z,99.53
2018-02-07T20:07:08.700Z,97.88
2018-02-07T20:09:37.030Z,104.65
2018-02-07T20:12:05.349Z,126.90
2018-02-07T20:14:32.938Z,107.30
2018-02-07T20:17:01.253Z,112.18
2018-02-07T20:19:29.419Z,96.65
2018-02-07T20:21:57.035Z,126.40
2018-02-07T20:24:25.604Z,109.30
2018-02-07T20:26:56.203Z,108.05
2018-02-07T20:29:30.799Z,109.53
2018-02-07T20:31:58.652Z,125.82
2018-02-07T20:34:27.439Z,117.18
2018-02-07T20:36:55.188Z,108.15
2018-02-07T20:39:26.592Z,104.07
2018-02-07T20:41:54.213Z,113.37
2018-02-07T20:44:21.818Z,108.95
2018-02-07T20:46:49.478Z,102.55
2018-02-07T20:49:17.143Z,109.30
2018-02-07T20:51:45.167Z,116.53
2018-02-07T20:54:12.955Z,112.90
2018-02-07T20:56:40.714Z,95.32
2018-02-07T20:59:08.316Z,119.55
2018-02-07T21:01:36.861Z,104.87
2018-02-07T21:04:05.330Z,110.55
2018-02-07T21:06:32.987Z,116.28
2018-02-07T21:09:00.603Z,136.77
2018-02-07T21:11:28.297Z,116.03
2018-02-07T21:13:55.935Z,123.55
2018-02-07T21:16:23.559Z,108.97
2018-02-07T21:18:51.595Z,106.53
2018-02-07T21:21:19.255Z,147.40
2018-02-07T21:23:46.874Z,115.28
2018-02-07T21:26:15.470Z,115.70
2018-02-07T21:28:44.097Z,119.40
2018-02-07T21:31:11.716Z,113.00
2018-02-07T21:33:39.428Z,129.87
2018-02-07T21:36:07.042Z,138.15
2018-02-07T21:38:35.621Z,132.43
2018-02-07T21:41:03.217Z,119.32
2018-02-07T21:43:32.074Z,117.80
2018-02-07T21:45:59.740Z,128.10
2018-02-07T21:48:27.403Z,129.05
2018-02-07T21:50:54.987Z,107.87
2018-02-07T21:53:22.732Z,126.90
2018-02-07T21:55:51.186Z,116.75
2018-02-07T21:58:18.770Z,123.47
2018-02-07T22:00:46.381Z,122.22
2018-02-07T22:03:13.966Z,121.65
2018-02-07T22:05:41.654Z,119.28
2018-02-07T22:08:09.518Z,110.40
2018-02-07T22:10:37.112Z,111.12
2018-02-07T22:13:04.695Z,115.60
2018-02-07T22:15:32.794Z,119.80
2018-02-07T22:18:00.486Z,115.90
2018-02-07T22:20:28.111Z,111.88
2018-02-07T22:22:55.702Z,128.80
2018-02-07T22:25:23.290Z,102.65
2018-02-07T22:27:50.883Z,118.15
2018-02-07T22:30:18.479Z,138.43
2018-02-07T22:32:46.071Z,149.52
2018-02-07T22:35:13.666Z,128.90
2018-02-07T22:37:41.261Z,139.52
2018-02-07T22:40:08.886Z,154.70
2018-02-07T22:42:36.470Z,149.95
2018-02-07T22:45:04.162Z,130.75
2018-02-07T22:47:31.750Z,128.12
2018-02-07T22:49:59.334Z,119.05
2018-02-07T22:52:26.914Z,119.95
2018-02-07T22:54:54.499Z,107.50
2018-02-07T22:57:22.091Z,114.00
2018-02-07T22:59:49.677Z,122.20
2018-02-07T23:02:17.270Z,106.82
2018-02-07T23:04:44.950Z,129.95
2018-02-07T23:07:12.583Z,112.18
2018-02-07T23:09:40.166Z,92.82
2018-02-07T23:12:07.769Z,117.62
2018-02-07T23:14:36.067Z,105.47
2018-02-07T23:17:04.437Z,100.32
2018-02-07T23:19:32.799Z,126.38
2018-02-07T23:22:01.260Z,122.30
2018-02-07T23:24:29.643Z,121.65
2018-02-07T23:26:58.126Z,120.93
2018-02-07T23:29:25.799Z,101.05
2018-02-07T23:31:54.289Z,99.50
2018-02-07T23:34:22.648Z,111.85
2018-02-07T23:36:50.907Z,95.75
2018-02-07T23:39:18.495Z,108.43
2018-02-07T23:41:46.970Z,110.05
2018-02-07T23:44:14.558Z,102.35
2018-02-07T23:46:42.155Z,102.85
2018-02-07T23:49:09.746Z,111.22
2018-02-07T23:51:37.379Z,101.07
2018-02-07T23:54:04.959Z,115.60
2018-02-07T23:56:32.541Z,110.45
2018-02-07T23:59:00.127Z,101.30
